Terminal Aerodrome Forecast
Issued by NWS

Current Version | Previous Version | Text Only | Print | Product List | Glossary On
Versions: 1 2 3 4 5 6 7 8 9 10 11 12 13
000
FTUS42 KTAE 191700
TAFABY
TAF
KABY 191720Z 1918/2018 01009KT P6SM BKN009 OVC015
      TEMPO 1918/1922 01012G17KT 4SM -DZ BR
     FM200000 02008KT P6SM SCT005 OVC013
     FM200600 04011KT P6SM SCT003 OVC010
      TEMPO 2008/2012 6SM BR OVC008=

USA.gov is the U.S. government's official web portal to all federal, state and local government web resources and services.